createdAt,value
2023-04-04T00:00:05.835Z,18.54
2023-04-04T00:05:27.997Z,18.51
2023-04-04T00:10:49.838Z,18.49
2023-04-04T00:16:11.933Z,18.45
2023-04-04T00:21:33.816Z,18.43
2023-04-04T00:26:55.658Z,18.41
2023-04-04T00:32:17.570Z,18.39
2023-04-04T00:37:39.412Z,18.36
2023-04-04T00:43:01.754Z,18.34
2023-04-04T00:48:25.109Z,18.29
2023-04-04T00:53:48.308Z,18.25
2023-04-04T00:59:10.493Z,18.24
2023-04-04T01:04:33.150Z,18.21
2023-04-04T01:09:59.363Z,18.19
2023-04-04T01:15:21.212Z,18.17
2023-04-04T01:20:54.173Z,18.14
2023-04-04T01:26:16.030Z,18.12
2023-04-04T01:31:41.473Z,18.10
2023-04-04T01:37:31.036Z,18.08
2023-04-04T01:42:54.026Z,18.04
2023-04-04T01:48:17.016Z,18.03
2023-04-04T01:53:38.901Z,18.00
2023-04-04T01:59:02.123Z,17.99
2023-04-04T02:04:24.053Z,17.96
2023-04-04T02:09:46.004Z,17.95
2023-04-04T02:15:09.030Z,17.93
2023-04-04T02:20:30.973Z,17.90
2023-04-04T02:25:53.105Z,17.87
2023-04-04T02:31:15.005Z,17.87
2023-04-04T02:36:37.745Z,17.83
2023-04-04T02:41:59.609Z,17.82
2023-04-04T02:47:21.377Z,17.80
2023-04-04T02:52:43.346Z,17.79
2023-04-04T02:58:05.221Z,17.77
2023-04-04T03:03:27.603Z,17.74
2023-04-04T03:08:49.677Z,17.73
2023-04-04T03:14:12.090Z,17.71
2023-04-04T03:19:34.039Z,17.69
2023-04-04T03:24:56.041Z,17.66
2023-04-04T03:30:17.836Z,17.66
2023-04-04T03:35:40.898Z,17.63
2023-04-04T03:41:06.396Z,17.63
2023-04-04T03:46:28.258Z,17.60
2023-04-04T03:51:50.285Z,17.58
2023-04-04T03:57:12.210Z,17.58
2023-04-04T04:02:34.038Z,17.54
2023-04-04T04:07:56.448Z,17.52
2023-04-04T04:13:18.430Z,17.50
2023-04-04T04:18:40.490Z,17.50
2023-04-04T04:24:02.484Z,17.47
2023-04-04T04:29:24.405Z,17.47
2023-04-04T04:34:46.469Z,17.45
2023-04-04T04:40:09.095Z,17.45
2023-04-04T04:45:32.039Z,17.43
2023-04-04T04:50:53.901Z,17.41
2023-04-04T04:56:15.765Z,17.39
2023-04-04T05:01:37.625Z,17.39
2023-04-04T05:06:59.568Z,17.41
2023-04-04T05:12:21.420Z,17.79
2023-04-04T05:17:43.474Z,18.33
2023-04-04T05:23:06.403Z,18.72
2023-04-04T05:28:28.187Z,18.98
2023-04-04T05:33:49.925Z,19.11
2023-04-04T05:39:11.763Z,19.19
2023-04-04T05:44:33.580Z,19.21
2023-04-04T05:49:55.440Z,19.21
2023-04-04T05:55:17.588Z,19.21
2023-04-04T06:00:39.734Z,19.17
2023-04-04T06:06:04.835Z,19.15
2023-04-04T06:11:26.816Z,19.10
2023-04-04T06:16:48.844Z,19.06
2023-04-04T06:22:11.036Z,18.99
2023-04-04T06:27:32.807Z,18.94
2023-04-04T06:32:54.960Z,18.93
2023-04-04T06:43:38.917Z,18.97
2023-04-04T06:49:00.725Z,19.17
2023-04-04T06:54:22.706Z,19.45
2023-04-04T06:59:45.296Z,19.71
2023-04-04T07:05:07.787Z,19.91
2023-04-04T07:10:29.589Z,20.10
2023-04-04T07:15:51.586Z,20.24
2023-04-04T07:21:14.072Z,20.35
2023-04-04T07:26:35.898Z,20.35
2023-04-04T07:31:57.706Z,20.32
2023-04-04T07:37:19.519Z,20.28
2023-04-04T07:42:45.822Z,20.22
2023-04-04T07:48:07.630Z,20.15
2023-04-04T07:53:29.415Z,20.05
2023-04-04T07:58:51.543Z,19.97
2023-04-04T08:04:13.424Z,19.95
2023-04-04T08:09:36.687Z,19.96
2023-04-04T08:14:58.575Z,20.11
2023-04-04T08:20:20.560Z,20.32
2023-04-04T08:25:44.309Z,20.52
2023-04-04T08:31:06.248Z,20.73
2023-04-04T08:36:29.006Z,20.86
2023-04-04T08:41:58.717Z,20.93
2023-04-04T08:47:21.787Z,20.93
2023-04-04T08:52:45.097Z,20.88
2023-04-04T08:58:07.025Z,20.83
2023-04-04T09:03:33.232Z,20.72
2023-04-04T09:08:57.794Z,20.59
2023-04-04T09:14:21.602Z,20.48
2023-04-04T09:19:43.423Z,20.36
2023-04-04T09:25:08.650Z,20.24
2023-04-04T09:30:30.662Z,20.12
2023-04-04T09:35:58.983Z,20.03
2023-04-04T09:41:21.732Z,19.91
2023-04-04T09:46:44.483Z,19.80
2023-04-04T09:52:19.031Z,19.71
2023-04-04T09:57:42.037Z,19.60
2023-04-04T10:03:05.546Z,19.50
2023-04-04T10:08:28.797Z,19.44
2023-04-04T10:13:53.684Z,19.41
2023-04-04T10:19:18.094Z,19.36
2023-04-04T10:24:40.673Z,19.38
2023-04-04T10:30:02.564Z,19.42
2023-04-04T10:35:25.020Z,19.47
2023-04-04T10:40:50.462Z,19.54
2023-04-04T10:46:16.130Z,19.61
2023-04-04T10:51:48.812Z,19.64
2023-04-04T10:57:15.391Z,19.68
2023-04-04T11:02:57.078Z,19.69
2023-04-04T11:08:25.436Z,19.62
2023-04-04T11:14:00.243Z,19.57
2023-04-04T11:19:23.268Z,19.52
2023-04-04T11:24:46.299Z,19.52
2023-04-04T11:30:16.278Z,19.50
2023-04-04T11:35:40.228Z,19.42
2023-04-04T11:41:02.675Z,19.34
2023-04-04T11:46:29.482Z,19.29
2023-04-04T11:51:52.914Z,19.31
2023-04-04T11:57:19.759Z,19.45
2023-04-04T12:02:42.352Z,19.68
2023-04-04T12:08:05.396Z,19.94
2023-04-04T12:13:31.616Z,20.17
2023-04-04T12:18:53.804Z,20.34
2023-04-04T12:24:16.215Z,20.41
2023-04-04T12:29:38.498Z,20.45
2023-04-04T12:35:01.672Z,20.43
2023-04-04T12:40:23.776Z,20.33
2023-04-04T12:45:46.300Z,20.22
2023-04-04T12:51:09.166Z,20.18
2023-04-04T12:56:32.329Z,20.24
2023-04-04T13:01:54.287Z,20.31
2023-04-04T13:07:27.601Z,20.39
2023-04-04T13:13:07.506Z,20.39
2023-04-04T13:18:39.501Z,20.45
2023-04-04T13:24:04.218Z,20.45
2023-04-04T13:29:27.107Z,20.42
2023-04-04T13:34:49.429Z,20.35
2023-04-04T13:40:11.741Z,20.26
2023-04-04T13:45:34.250Z,20.17
2023-04-04T13:50:56.222Z,20.09
2023-04-04T13:56:19.064Z,19.98
2023-04-04T14:01:41.813Z,19.88
2023-04-04T14:07:03.704Z,19.80
2023-04-04T14:12:25.572Z,19.69
2023-04-04T14:17:47.380Z,19.62
2023-04-04T14:23:09.805Z,19.55
2023-04-04T14:28:31.631Z,19.49
2023-04-04T14:33:53.393Z,19.47
2023-04-04T14:39:15.284Z,19.46
2023-04-04T14:44:37.079Z,19.46
2023-04-04T14:49:59.315Z,19.49
2023-04-04T14:55:21.132Z,19.52
2023-04-04T15:00:42.885Z,19.54
2023-04-04T15:06:06.014Z,19.58
2023-04-04T15:11:28.430Z,19.61
2023-04-04T15:16:50.596Z,19.61
2023-04-04T15:22:12.549Z,19.63
2023-04-04T15:27:34.751Z,19.63
2023-04-04T15:32:57.317Z,19.61
2023-04-04T15:38:20.407Z,19.59
2023-04-04T15:43:43.359Z,19.58
2023-04-04T15:49:06.227Z,19.57
2023-04-04T15:54:29.217Z,19.57
2023-04-04T15:59:51.634Z,19.56
2023-04-04T16:05:13.401Z,19.54
2023-04-04T16:10:35.476Z,19.56
2023-04-04T16:15:57.430Z,19.58
2023-04-04T16:21:19.276Z,19.58
2023-04-04T16:26:47.396Z,19.58
2023-04-04T16:32:10.730Z,19.59
2023-04-04T16:37:32.541Z,19.66
2023-04-04T16:42:54.334Z,19.80
2023-04-04T16:48:16.347Z,19.87
2023-04-04T16:53:38.866Z,19.86
2023-04-04T16:59:01.657Z,19.81
2023-04-04T17:04:23.570Z,19.77
2023-04-04T17:09:47.087Z,19.68
2023-04-04T17:15:10.349Z,19.63
2023-04-04T17:20:34.407Z,19.64
2023-04-04T17:25:56.511Z,19.73
2023-04-04T17:31:18.688Z,19.81
2023-04-04T17:36:40.455Z,19.88
2023-04-04T17:42:02.941Z,19.89
2023-04-04T17:47:25.458Z,19.92
2023-04-04T17:52:47.247Z,19.96
2023-04-04T17:58:09.363Z,20.03
2023-04-04T18:03:31.927Z,20.12
2023-04-04T18:08:55.068Z,20.19
2023-04-04T18:14:17.217Z,20.22
2023-04-04T18:19:40.181Z,20.25
2023-04-04T18:25:02.401Z,20.20
2023-04-04T18:30:24.264Z,20.12
2023-04-04T18:35:46.639Z,20.04
2023-04-04T18:41:08.786Z,19.97
2023-04-04T18:46:30.608Z,19.94
2023-04-04T18:51:52.421Z,20.03
2023-04-04T18:57:14.984Z,20.18
2023-04-04T19:02:37.698Z,20.37
2023-04-04T19:08:01.638Z,20.57
2023-04-04T19:13:23.455Z,20.74
2023-04-04T19:18:45.206Z,20.87
2023-04-04T19:24:07.948Z,20.99
2023-04-04T19:29:32.314Z,21.09
2023-04-04T19:34:54.327Z,21.13
2023-04-04T19:40:16.778Z,21.12
2023-04-04T19:45:58.436Z,21.08
2023-04-04T19:51:23.040Z,21.00
2023-04-04T19:56:46.863Z,20.98
2023-04-04T20:02:38.567Z,20.96
2023-04-04T20:08:01.223Z,20.89
2023-04-04T20:13:23.258Z,20.82
2023-04-04T20:18:46.647Z,20.77
2023-04-04T20:24:08.851Z,20.67
2023-04-04T20:29:32.348Z,20.57
2023-04-04T20:34:54.257Z,20.47
2023-04-04T20:40:39.181Z,20.43
2023-04-04T20:46:01.444Z,20.36
2023-04-04T20:51:33.367Z,20.32
2023-04-04T20:56:57.360Z,20.23
2023-04-04T21:02:23.696Z,20.17
2023-04-04T21:07:45.515Z,20.10
2023-04-04T21:13:07.968Z,20.05
2023-04-04T21:18:33.041Z,19.98
2023-04-04T21:24:10.193Z,19.91
2023-04-04T21:29:32.025Z,19.84
2023-04-04T21:34:53.944Z,19.77
2023-04-04T21:40:16.760Z,19.71
2023-04-04T21:45:38.541Z,19.64
2023-04-04T21:51:00.327Z,19.57
2023-04-04T21:56:27.506Z,19.52
2023-04-04T22:01:50.618Z,19.47
2023-04-04T22:07:12.489Z,19.42
2023-04-04T22:12:39.493Z,19.36
2023-04-04T22:18:04.028Z,19.33
2023-04-04T22:23:25.870Z,19.28
2023-04-04T22:28:48.410Z,19.24
2023-04-04T22:34:11.916Z,19.19
2023-04-04T22:39:35.176Z,19.15
2023-04-04T22:44:56.946Z,19.12
2023-04-04T22:50:23.325Z,19.08
2023-04-04T22:55:45.138Z,19.05
2023-04-04T23:01:07.126Z,19.00
2023-04-04T23:06:30.051Z,18.98
2023-04-04T23:11:51.816Z,18.94
2023-04-04T23:17:13.579Z,18.90
2023-04-04T23:22:35.687Z,18.88
2023-04-04T23:27:57.450Z,18.85
2023-04-04T23:33:19.289Z,18.82
2023-04-04T23:38:41.030Z,18.80
2023-04-04T23:44:02.864Z,18.77
2023-04-04T23:49:24.750Z,18.74
2023-04-04T23:54:46.720Z,18.72
